Time;durP1;ratioP1;P1;durP2;ratioP2;P2;SDS_P1;SDS_P2;PMS_P1;PMS_P2;Temp;Humidity;BMP_temperature;BMP_pressure;BME280_temperature;BME280_humidity;BME280_pressure;Samples;Min_cycle;Max_cycle;Signal;HPM_P1;HPM_P2
2022/11/05 00:09:28;;;;;;;55.63;35.45;;;;;;;10.67;87.78;99274.52;2037778;87;27810;-65
2022/11/05 00:10:42;;;;;;;47.67;34.25;;;;;;;10.58;88.01;99318.34;1938566;91;34391;-67
2022/11/05 00:17:03;;;;;;;43.68;30.25;;;;;;;10.53;87.87;99341.03;1939055;91;27876;-66
2022/11/05 00:20:07;;;;;;;47.53;29.85;;;;;;;10.47;87.83;99344.48;1938462;91;30105;-67
2022/11/05 00:26:30;;;;;;;46.70;28.42;;;;;;;10.44;87.99;99359.39;1907447;93;33415;-65
2022/11/05 00:29:31;;;;;;;42.58;27.40;;;;;;;10.40;87.87;99368.61;1907635;93;29664;-67
2022/11/05 00:32:33;;;;;;;44.75;27.93;;;;;;;10.36;87.88;99367.05;1907753;93;28106;-68
2022/11/05 00:35:36;;;;;;;43.08;27.80;;;;;;;10.31;87.74;99372.70;1908215;90;29788;-66
2022/11/05 00:38:37;;;;;;;39.80;27.10;;;;;;;10.28;87.82;99365.32;1975821;89;31703;-67
2022/11/05 00:41:38;;;;;;;43.13;28.62;;;;;;;10.26;88.02;99374.80;1975792;89;33301;-65
2022/11/05 00:45:03;;;;;;;45.73;28.30;;;;;;;10.25;87.92;99374.91;1975579;90;29983;-66
2022/11/05 00:51:21;;;;;;;45.95;27.85;;;;;;;10.16;87.92;99381.21;2007441;88;29924;-65
2022/11/05 00:54:22;;;;;;;47.85;29.07;;;;;;;10.13;88.02;99389.42;2022064;88;31059;-65
2022/11/05 00:57:23;;;;;;;65.37;30.72;;;;;;;10.10;87.94;99392.28;2023523;88;34128;-64
2022/11/05 01:00:28;;;;;;;44.67;27.90;;;;;;;10.06;87.88;99392.13;2023676;88;30503;-64
2022/11/05 01:03:33;;;;;;;40.30;25.65;;;;;;;10.03;88.00;99397.66;2023770;88;27646;-65
2022/11/05 01:06:34;;;;;;;42.60;25.62;;;;;;;10.00;88.03;99402.73;2023563;88;28657;-65
2022/11/05 01:09:36;;;;;;;39.25;24.00;;;;;;;9.98;88.09;99411.78;2023649;88;32240;-65
2022/11/05 01:12:37;;;;;;;38.55;24.50;;;;;;;9.98;88.10;99419.81;2023515;88;34104;-65
2022/11/05 01:15:40;;;;;;;34.03;21.30;;;;;;;9.96;88.21;99417.70;2023614;88;29375;-65
2022/11/05 01:18:41;;;;;;;29.60;20.50;;;;;;;9.96;88.33;99422.59;2023629;88;27706;-65
2022/11/05 01:21:42;;;;;;;28.52;19.67;;;;;;;9.97;88.36;99429.67;2022884;88;29814;-65
2022/11/05 01:24:43;;;;;;;27.42;20.15;;;;;;;9.95;88.26;99436.05;2007645;88;31395;-65
2022/11/05 01:27:45;;;;;;;29.72;18.65;;;;;;;9.94;88.33;99447.70;2007547;88;33336;-65
2022/11/05 01:30:52;;;;;;;25.17;18.05;;;;;;;9.92;88.36;99438.45;2007561;88;30122;-65
2022/11/05 01:33:53;;;;;;;23.45;16.27;;;;;;;9.90;88.31;99444.86;2007683;88;27721;-65
2022/11/05 01:36:55;;;;;;;21.30;13.28;;;;;;;9.90;88.53;99444.36;2007411;88;29909;-65
2022/11/05 01:39:57;;;;;;;15.75;11.53;;;;;;;9.90;88.56;99440.84;2007916;88;32011;-65
2022/11/05 01:42:58;;;;;;;7.00;5.10;;;;;;;9.89;88.57;99446.66;2007545;88;34174;-65
2022/11/05 01:46:00;;;;;;;4.67;3.55;;;;;;;9.86;88.49;99448.17;2002367;88;30634;-65
2022/11/05 01:49:06;;;;;;;3.60;3.12;;;;;;;9.84;88.44;99455.45;1972764;90;27721;-65
2022/11/05 01:52:10;;;;;;;2.47;1.95;;;;;;;9.84;88.55;99456.30;1981447;88;27620;-65
2022/11/05 01:55:12;;;;;;;2.02;1.42;;;;;;;9.81;88.42;99466.33;2004228;88;32247;-65
2022/11/05 01:58:18;;;;;;;1.45;1.30;;;;;;;9.77;88.26;99469.65;2004414;88;33791;-64
2022/11/05 02:01:19;;;;;;;2.45;1.25;;;;;;;9.71;88.16;99464.19;1993456;88;29699;-65
2022/11/05 02:04:42;;;;;;;2.10;1.60;;;;;;;9.65;88.17;99465.91;2004762;88;27681;-65
2022/11/05 02:07:45;;;;;;;2.08;1.87;;;;;;;9.61;88.22;99469.72;2003884;88;29352;-65
2022/11/05 02:10:46;;;;;;;3.15;2.30;;;;;;;9.54;88.04;99473.69;2004547;88;31468;-65
2022/11/05 02:13:48;;;;;;;3.75;2.10;;;;;;;9.49;87.98;99471.78;2004408;88;34165;-65
2022/11/05 02:17:04;;;;;;;2.47;2.27;;;;;;;9.40;87.92;99466.01;2004611;88;30464;-64
2022/11/05 02:20:21;;;;;;;2.62;2.42;;;;;;;9.35;88.01;99473.42;2004596;88;27723;-65
2022/11/05 02:24:07;;;;;;;2.92;2.72;;;;;;;9.34;88.22;99482.87;1983172;88;30014;-65
2022/11/05 02:27:22;;;;;;;2.80;2.37;;;;;;;9.32;88.29;99498.14;1997603;89;31080;-65
2022/11/05 02:30:54;;;;;;;3.87;2.98;;;;;;;9.27;88.28;99500.59;1997619;89;33779;-65
2022/11/05 02:34:36;;;;;;;5.00;3.00;;;;;;;9.24;88.24;99505.27;1997694;89;30476;-65
2022/11/05 02:37:45;;;;;;;4.17;2.65;;;;;;;9.22;88.32;99515.17;1964648;90;28400;-65
2022/11/05 02:40:55;;;;;;;3.15;2.67;;;;;;;9.20;88.53;99520.62;1960487;90;28902;-65
2022/11/05 02:44:27;;;;;;;4.25;2.50;;;;;;;9.22;88.63;99528.08;1948788;91;32397;-65
2022/11/05 02:47:58;;;;;;;3.20;2.90;;;;;;;9.21;88.60;99535.70;1964604;90;33372;-65
2022/11/05 02:51:13;;;;;;;3.33;3.02;;;;;;;9.21;88.64;99538.38;1933045;92;30498;-65
2022/11/05 02:54:38;;;;;;;2.95;2.75;;;;;;;9.19;88.51;99561.66;1965448;90;27720;-66
2022/11/05 02:57:45;;;;;;;3.00;2.37;;;;;;;9.18;88.60;99563.09;1965188;90;29169;-66
2022/11/05 03:00:54;;;;;;;3.55;3.25;;;;;;;9.15;88.58;99561.91;1965306;90;31018;-65
2022/11/05 03:04:02;;;;;;;3.08;2.72;;;;;;;9.14;88.74;99566.37;1965300;90;32981;-66
2022/11/05 03:07:23;;;;;;;2.50;2.30;;;;;;;9.14;88.70;99570.88;1946579;91;29356;-66
2022/11/05 03:10:49;;;;;;;2.67;2.45;;;;;;;9.11;88.64;99583.45;1946496;91;27701;-65
2022/11/05 03:14:14;;;;;;;4.10;2.58;;;;;;;9.11;88.78;99586.58;1940596;91;29095;-65
2022/11/05 03:17:38;;;;;;;2.52;2.33;;;;;;;9.14;88.83;99594.93;1946812;91;32214;-65
2022/11/05 03:20:51;;;;;;;4.25;2.33;;;;;;;9.11;88.83;99594.60;1946378;91;34128;-65
2022/11/05 03:24:10;;;;;;;2.40;2.20;;;;;;;9.11;88.93;99594.60;1945672;91;29704;-66
2022/11/05 03:27:18;;;;;;;2.85;2.20;;;;;;;9.10;88.72;99605.78;1951661;91;27784;-65
2022/11/05 03:30:20;;;;;;;3.45;2.15;;;;;;;9.07;88.75;99611.28;1953985;91;28720;-65
2022/11/05 03:33:25;;;;;;;4.17;2.50;;;;;;;9.06;88.83;99619.39;1953746;91;31093;-65
2022/11/05 03:36:31;;;;;;;3.35;1.95;;;;;;;9.06;88.86;99626.92;1953921;91;33763;-66
2022/11/05 03:39:43;;;;;;;2.40;2.08;;;;;;;9.06;88.90;99626.92;1953950;91;30174;-65
2022/11/05 03:42:47;;;;;;;2.17;1.98;;;;;;;9.05;88.84;99633.70;1954024;91;27716;-65
2022/11/05 03:46:00;;;;;;;3.00;1.43;;;;;;;9.03;88.96;99639.11;1954184;91;28666;-65
2022/11/05 03:49:05;;;;;;;1.70;1.52;;;;;;;9.04;89.06;99646.17;1954037;91;32617;-65
2022/11/05 03:52:16;;;;;;;2.05;1.92;;;;;;;9.03;88.99;99667.16;1954015;91;32979;-66
2022/11/05 03:55:23;;;;;;;2.52;2.05;;;;;;;9.03;89.04;99667.16;1953697;91;29565;-65
2022/11/05 03:58:25;;;;;;;2.67;1.92;;;;;;;9.03;89.16;99668.98;1954129;91;27731;-65
2022/11/05 04:01:27;;;;;;;4.83;1.92;;;;;;;9.02;89.17;99672.60;1954034;91;29917;-65
2022/11/05 04:04:28;;;;;;;1.75;1.65;;;;;;;9.02;89.04;99677.94;1953920;91;31414;-65
2022/11/05 04:14:09;;;;;;;1.95;1.80;;;;;;;8.96;89.01;99694.67;1954269;91;27665;-65
2022/11/05 04:17:10;;;;;;;1.77;1.67;;;;;;;8.93;89.01;99716.23;1954087;91;29067;-65
2022/11/05 04:26:52;;;;;;;2.02;1.87;;;;;;;8.93;89.21;99729.59;1971939;89;29760;-65
2022/11/05 04:33:15;;;;;;;2.70;1.98;;;;;;;8.89;89.16;99727.14;2001759;88;29956;-65
2022/11/05 04:36:18;;;;;;;2.42;2.22;;;;;;;8.90;89.31;99735.09;1975287;90;31048;-65
2022/11/05 04:39:20;;;;;;;2.33;2.12;;;;;;;8.90;89.28;99735.09;2001676;88;33936;-64
2022/11/05 04:42:21;;;;;;;4.35;2.55;;;;;;;8.90;89.33;99740.89;1975107;90;30488;-64
2022/11/05 04:45:24;;;;;;;2.85;2.42;;;;;;;8.90;89.39;99736.42;2002089;88;27735;-64
2022/11/05 04:48:26;;;;;;;3.98;2.55;;;;;;;8.91;89.41;99734.60;1974912;90;29291;-64
2022/11/05 04:51:27;;;;;;;2.75;2.55;;;;;;;8.88;89.35;99736.09;2000362;88;31168;-65
2022/11/05 04:54:28;;;;;;;2.58;2.37;;;;;;;8.89;89.47;99731.14;1953795;91;33337;-64
2022/11/05 04:57:30;;;;;;;4.33;2.50;;;;;;;8.88;89.46;99725.41;1953634;91;29383;-65
2022/11/05 05:00:32;;;;;;;4.05;2.62;;;;;;;8.88;89.42;99734.75;1953754;91;27709;-65
2022/11/05 05:03:33;;;;;;;3.10;2.80;;;;;;;8.87;89.45;99737.91;1953759;91;29842;-64
2022/11/05 05:06:35;;;;;;;2.90;2.60;;;;;;;8.85;89.39;99745.14;1953683;91;31432;-65
2022/11/05 05:09:36;;;;;;;5.10;2.60;;;;;;;8.86;89.49;99755.34;1953772;91;34148;-64
2022/11/05 05:12:38;;;;;;;5.03;2.62;;;;;;;8.85;89.48;99758.98;1953836;91;30437;-65
2022/11/05 05:15:39;;;;;;;2.95;2.75;;;;;;;8.85;89.53;99763.84;1953773;91;27999;-64
2022/11/05 05:18:40;;;;;;;4.05;2.92;;;;;;;8.85;89.55;99767.00;1953921;91;29878;-65
2022/11/05 05:21:41;;;;;;;6.53;3.33;;;;;;;8.88;89.68;99774.83;1953394;91;31438;-65
2022/11/05 05:24:42;;;;;;;2.30;2.15;;;;;;;8.87;89.67;99769.97;1958223;89;34080;-65
2022/11/05 05:27:44;;;;;;;4.12;3.33;;;;;;;8.87;89.59;99777.10;1982594;89;30545;-65
2022/11/05 05:30:45;;;;;;;4.20;2.98;;;;;;;8.88;89.60;99776.16;1997635;88;27735;-65
2022/11/05 05:33:47;;;;;;;3.47;3.17;;;;;;;8.87;89.68;99769.97;1983247;89;28695;-64
2022/11/05 05:36:48;;;;;;;5.10;3.15;;;;;;;8.88;89.58;99773.03;1983001;89;31444;-65
2022/11/05 05:39:49;;;;;;;3.33;3.02;;;;;;;8.88;89.70;99778.38;1997280;88;34165;-64
2022/11/05 05:42:54;;;;;;;3.77;3.15;;;;;;;8.87;89.61;99765.97;1982962;89;29726;-65
2022/11/05 05:45:58;;;;;;;3.75;3.42;;;;;;;8.86;89.61;99765.56;1982781;89;27748;-66
2022/11/05 05:49:00;;;;;;;3.37;3.08;;;;;;;8.85;89.55;99769.66;1997684;88;29114;-64
2022/11/05 05:52:01;;;;;;;5.80;3.55;;;;;;;8.85;89.74;99785.20;1982988;88;31456;-64
2022/11/05 05:55:04;;;;;;;7.47;3.77;;;;;;;8.87;89.72;99790.45;1955003;89;33638;-64
2022/11/05 05:58:05;;;;;;;5.90;4.22;;;;;;;8.86;89.78;99808.76;1951980;91;29343;-64
2022/11/05 06:01:11;;;;;;;7.70;4.58;;;;;;;8.88;89.87;99818.45;1952086;91;27725;-64
2022/11/05 06:04:13;;;;;;;4.78;4.30;;;;;;;8.89;89.86;99823.30;1951754;90;28980;-65
2022/11/05 06:07:14;;;;;;;7.20;5.47;;;;;;;8.88;89.75;99830.47;1952228;89;31448;-65
2022/11/05 06:10:15;;;;;;;7.80;5.33;;;;;;;8.88;89.86;99826.91;1979926;89;33310;-65
2022/11/05 06:13:17;;;;;;;6.60;5.90;;;;;;;8.87;89.82;99834.08;1997656;88;29336;-65
2022/11/05 06:16:18;;;;;;;10.08;7.17;;;;;;;8.87;89.77;99851.44;1983050;89;28225;-65
2022/11/05 06:19:20;;;;;;;5.35;4.72;;;;;;;8.89;89.93;99851.35;1982636;89;29792;-64
2022/11/05 06:22:21;;;;;;;7.62;4.62;;;;;;;8.90;89.95;99863.77;1997421;88;31430;-65
2022/11/05 06:25:23;;;;;;;6.42;4.08;;;;;;;8.91;90.01;99870.84;1952246;89;34119;-65
2022/11/05 06:28:24;;;;;;;5.15;4.55;;;;;;;8.93;90.02;99874.31;1919901;92;30514;-65
2022/11/05 06:31:25;;;;;;;5.03;3.98;;;;;;;8.96;90.05;99883.52;1946633;90;27723;-65
2022/11/05 06:34:26;;;;;;;5.92;5.00;;;;;;;8.97;90.17;99888.77;1946381;91;29070;-65
2022/11/05 06:37:29;;;;;;;6.60;4.45;;;;;;;8.97;89.97;99895.44;1946289;91;31870;-65
2022/11/05 06:40:31;;;;;;;5.30;4.80;;;;;;;8.99;89.94;99898.52;1934110;91;34454;-65
2022/11/05 06:43:32;;;;;;;5.28;4.78;;;;;;;8.99;90.00;99904.73;1946332;91;29702;-64
2022/11/05 06:46:34;;;;;;;5.55;4.75;;;;;;;9.01;89.99;99909.54;1946444;90;28029;-65
2022/11/05 06:49:35;;;;;;;5.95;5.35;;;;;;;9.02;90.16;99904.56;1946450;91;29180;-65
2022/11/05 06:52:36;;;;;;;8.08;5.40;;;;;;;9.05;90.15;99911.09;1951443;90;31461;-65
2022/11/05 06:55:38;;;;;;;8.58;5.85;;;;;;;9.07;90.06;99919.90;1977094;89;34301;-65
2022/11/05 06:58:39;;;;;;;8.53;5.90;;;;;;;9.10;90.20;99924.25;1976839;90;29844;-64
2022/11/05 07:01:40;;;;;;;8.28;5.22;;;;;;;9.12;90.16;99930.36;1977165;89;27731;-65
2022/11/05 07:04:42;;;;;;;10.43;5.12;;;;;;;9.14;90.18;99940.98;1976733;90;30864;-65
2022/11/05 07:07:44;;;;;;;9.70;5.22;;;;;;;9.18;90.37;99944.77;1977101;90;31419;-65
2022/11/05 07:10:45;;;;;;;7.37;6.25;;;;;;;9.19;90.13;99951.84;1977057;90;32974;-66
2022/11/05 07:13:47;;;;;;;6.30;5.70;;;;;;;9.20;90.05;99948.23;1976972;89;30047;-66
2022/11/05 07:16:48;;;;;;;11.05;5.87;;;;;;;9.22;90.18;99958.83;1977207;89;27830;-65
2022/11/05 07:19:50;;;;;;;10.85;5.97;;;;;;;9.24;90.16;99953.82;1977203;90;29165;-65
2022/11/05 07:23:04;;;;;;;6.30;5.58;;;;;;;9.26;90.14;99959.08;1969281;90;30822;-65
2022/11/05 07:26:05;;;;;;;6.85;5.28;;;;;;;9.28;90.28;99962.06;1949888;90;33336;-65
2022/11/05 07:29:06;;;;;;;10.85;7.87;;;;;;;9.34;90.39;99968.94;1962986;90;29343;-65
2022/11/05 07:32:08;;;;;;;8.60;7.10;;;;;;;9.34;90.13;99978.30;1963627;90;27577;-64
2022/11/05 07:35:09;;;;;;;6.90;6.05;;;;;;;9.35;90.16;99982.66;1963287;90;29082;-65
2022/11/05 07:38:10;;;;;;;7.33;5.40;;;;;;;9.37;90.21;99990.14;1963007;90;32055;-65
2022/11/05 07:41:12;;;;;;;7.65;5.42;;;;;;;9.39;90.10;99998.11;1947308;91;33321;-65
2022/11/05 07:44:13;;;;;;;7.60;5.80;;;;;;;9.40;90.12;100003.36;1947562;91;29343;-65
2022/11/05 07:47:14;;;;;;;7.72;5.47;;;;;;;9.42;90.09;100007.31;1947315;91;27745;-65
2022/11/05 07:50:18;;;;;;;6.33;5.62;;;;;;;9.48;90.43;100019.02;1947589;91;28710;-65
2022/11/05 07:53:20;;;;;;;7.63;6.77;;;;;;;9.53;90.42;100025.47;1959620;90;31935;-65
2022/11/05 07:56:22;;;;;;;9.95;5.80;;;;;;;9.60;90.40;100032.75;1949673;91;34444;-65
2022/11/05 07:59:23;;;;;;;6.50;5.90;;;;;;;9.66;90.39;100039.99;1981365;89;30156;-65
2022/11/05 08:02:25;;;;;;;6.53;5.83;;;;;;;9.71;90.32;100039.75;1983011;89;27649;-66
2022/11/05 08:05:28;;;;;;;6.35;5.75;;;;;;;9.76;90.41;100031.03;1950364;91;29737;-65
2022/11/05 08:08:29;;;;;;;8.38;5.72;;;;;;;9.82;90.42;100032.53;1981533;89;31066;-65
2022/11/05 08:11:31;;;;;;;9.68;6.12;;;;;;;9.88;90.37;100037.55;1982667;89;33018;-65
2022/11/05 08:14:32;;;;;;;10.13;5.10;;;;;;;9.97;90.56;100032.20;1982579;89;30612;-66
2022/11/05 08:17:34;;;;;;;8.20;5.08;;;;;;;10.08;90.69;100036.55;1981538;89;27659;-66
2022/11/05 08:20:37;;;;;;;8.03;5.67;;;;;;;10.18;90.69;100040.91;1982725;89;29479;-65
2022/11/05 08:23:38;;;;;;;8.70;5.60;;;;;;;10.27;90.50;100047.59;1935856;91;31848;-66
2022/11/05 08:26:39;;;;;;;9.43;6.20;;;;;;;10.35;90.64;100050.75;1920113;92;33753;-66
2022/11/05 08:29:41;;;;;;;16.37;10.53;;;;;;;10.45;90.66;100052.51;1920189;92;30308;-65
2022/11/05 08:32:42;;;;;;;10.63;6.83;;;;;;;10.52;90.44;100061.92;1920605;91;27765;-65
2022/11/05 08:35:44;;;;;;;12.73;7.85;;;;;;;10.57;90.27;100059.03;1920297;92;29146;-65
2022/11/05 08:38:45;;;;;;;10.25;5.42;;;;;;;10.68;90.52;100066.00;1920205;92;32216;-65
2022/11/05 08:41:46;;;;;;;7.58;4.97;;;;;;;10.74;90.29;100071.05;1947025;91;33411;-64
2022/11/05 08:44:47;;;;;;;6.83;4.85;;;;;;;10.79;90.20;100058.73;1997578;89;29271;-63
2022/11/05 08:47:48;;;;;;;6.97;4.83;;;;;;;10.81;89.89;100067.55;1982936;88;27621;-62
2022/11/05 08:50:50;;;;;;;8.40;4.72;;;;;;;10.86;89.89;100076.19;1983059;89;29867;-63
2022/11/05 08:53:51;;;;;;;6.80;4.58;;;;;;;10.91;89.92;100084.00;1997292;89;31177;-64
2022/11/05 08:56:52;;;;;;;7.97;4.78;;;;;;;10.98;90.08;100097.92;1982802;89;33418;-63
2022/11/05 08:59:53;;;;;;;10.13;5.50;;;;;;;11.02;90.03;100096.78;1983011;89;29087;-64
2022/11/05 09:02:59;;;;;;;6.45;4.80;;;;;;;11.09;90.04;100112.45;1997784;88;27731;-64
2022/11/05 09:06:01;;;;;;;7.35;4.90;;;;;;;11.15;90.14;100112.61;2013543;87;28717;-64
2022/11/05 09:09:02;;;;;;;5.10;3.92;;;;;;;11.20;89.61;100115.88;1997448;89;31084;-63
2022/11/05 09:12:04;;;;;;;6.70;4.87;;;;;;;11.22;89.40;100124.71;1983010;89;32982;-63
2022/11/05 09:15:08;;;;;;;6.80;3.83;;;;;;;11.29;89.80;100120.36;1997656;89;29345;-63
2022/11/05 09:18:12;;;;;;;7.03;4.42;;;;;;;11.34;89.70;100124.97;1983229;89;27693;-63
2022/11/05 09:21:14;;;;;;;8.85;4.25;;;;;;;11.43;89.76;100129.84;1997779;89;29089;-64
2022/11/05 09:24:15;;;;;;;7.87;4.90;;;;;;;11.50;89.59;100136.57;1962241;89;32224;-63
2022/11/05 09:27:17;;;;;;;4.92;4.42;;;;;;;11.53;89.32;100132.88;1920289;92;33331;-63
2022/11/05 09:30:18;;;;;;;7.17;4.30;;;;;;;11.51;89.16;100139.64;1951957;91;29875;-64
2022/11/05 09:33:23;;;;;;;5.95;3.72;;;;;;;11.60;89.30;100142.28;1920449;92;27730;-64
2022/11/05 09:36:25;;;;;;;6.53;3.87;;;;;;;11.63;88.96;100152.85;1952042;91;29149;-63
2022/11/05 09:39:26;;;;;;;8.10;3.33;;;;;;;11.67;89.12;100158.44;1920565;92;32227;-63
2022/11/05 09:42:39;;;;;;;4.60;3.47;;;;;;;11.68;88.28;100167.34;1920762;92;33331;-63
2022/11/05 09:45:42;;;;;;;8.40;5.40;;;;;;;11.70;88.68;100168.12;1952064;91;29707;-63
2022/11/05 09:48:48;;;;;;;7.80;4.50;;;;;;;11.59;87.90;100144.58;1920592;92;27939;-63
2022/11/05 09:51:52;;;;;;;12.85;5.80;;;;;;;11.59;87.90;100144.58;1951978;91;29960;-63
2022/11/05 09:54:54;;;;;;;9.00;3.65;;;;;;;11.77;88.24;100167.30;1949923;91;31083;-62
2022/11/05 09:58:02;;;;;;;10.63;4.28;;;;;;;11.74;87.66;100168.84;1997308;89;33847;-62
2022/11/05 10:01:09;;;;;;;5.92;3.92;;;;;;;11.76;88.05;100170.47;1982454;89;29398;-63
2022/11/05 10:04:22;;;;;;;10.60;3.98;;;;;;;11.79;87.88;100168.97;1983034;89;27789;-64
2022/11/05 10:07:27;;;;;;;12.45;4.67;;;;;;;11.88;88.24;100159.98;1997585;88;29051;-64
2022/11/05 10:10:42;;;;;;;7.53;4.40;;;;;;;11.92;88.15;100161.05;1983008;89;31392;-64
2022/11/05 10:13:57;;;;;;;8.85;3.75;;;;;;;12.03;88.24;100167.18;1982939;87;34062;-64
2022/11/05 10:17:24;;;;;;;6.05;3.70;;;;;;;12.09;87.82;100166.84;1997605;89;30466;-63
2022/11/05 10:20:35;;;;;;;9.68;4.00;;;;;;;12.12;87.94;100162.64;1982761;89;27624;-63
2022/11/05 10:23:36;;;;;;;6.95;3.60;;;;;;;12.10;87.40;100172.59;1965839;89;27986;-64
2022/11/05 10:26:37;;;;;;;10.85;3.55;;;;;;;12.15;87.42;100183.95;1951809;91;32220;-63
2022/11/05 10:29:40;;;;;;;8.93;3.22;;;;;;;12.20;87.33;100192.19;1952123;89;33476;-64
2022/11/05 10:32:48;;;;;;;6.67;3.77;;;;;;;12.24;86.91;100193.75;1941390;91;29745;-63
2022/11/05 10:35:53;;;;;;;7.92;3.65;;;;;;;12.30;87.00;100180.81;1951608;90;27661;-63
2022/11/05 10:39:00;;;;;;;10.18;3.77;;;;;;;12.29;86.94;100188.48;1977961;89;29353;-64
2022/11/05 10:42:25;;;;;;;11.08;5.72;;;;;;;12.36;86.74;100187.65;1979478;89;31061;-63
2022/11/05 10:45:57;;;;;;;9.18;5.70;;;;;;;12.39;86.80;100189.31;1983231;89;33903;-62
2022/11/05 10:49:23;;;;;;;12.03;4.45;;;;;;;12.42;86.64;100196.70;1997600;89;29709;-63
2022/11/05 10:52:48;;;;;;;5.90;3.33;;;;;;;12.44;86.57;100197.48;1979053;88;27681;-63
2022/11/05 10:55:50;;;;;;;5.50;2.60;;;;;;;12.47;86.04;100199.11;1920339;91;28997;-63
2022/11/05 10:58:58;;;;;;;6.08;3.87;;;;;;;12.48;86.15;100204.02;1919906;92;30834;-64
2022/11/05 11:02:25;;;;;;;6.97;3.75;;;;;;;12.50;85.89;100204.30;1920263;92;34211;-63
2022/11/05 11:05:34;;;;;;;6.87;3.22;;;;;;;12.60;85.95;100206.81;1951795;91;29338;-63
2022/11/05 11:08:35;;;;;;;8.93;3.58;;;;;;;12.70;85.42;100183.44;1920264;92;27705;-64
2022/11/05 11:11:40;;;;;;;9.95;4.47;;;;;;;12.70;85.42;100183.44;1920065;92;29849;-64
2022/11/05 11:14:41;;;;;;;5.85;3.30;;;;;;;12.85;84.72;100202.66;1920160;92;32190;-63
2022/11/05 11:17:43;;;;;;;7.72;3.85;;;;;;;12.96;84.93;100196.64;1920368;92;33303;-64
2022/11/05 11:20:45;;;;;;;5.33;3.52;;;;;;;13.04;84.65;100206.42;1910065;92;29800;-63
2022/11/05 11:24:01;;;;;;;8.23;3.83;;;;;;;13.10;83.96;100208.36;1972816;89;27827;-63
2022/11/05 11:27:10;;;;;;;8.73;5.05;;;;;;;13.15;84.01;100210.30;1982956;89;29094;-63
2022/11/05 11:30:17;;;;;;;13.22;4.72;;;;;;;13.19;83.85;100215.38;1952390;91;31482;-64
2022/11/05 11:33:22;;;;;;;9.05;4.80;;;;;;;13.25;83.30;100210.09;1983864;89;34980;-65
2022/11/05 11:36:32;;;;;;;14.20;7.22;;;;;;;13.33;83.66;100219.03;1952318;91;29386;-64
2022/11/05 11:39:34;;;;;;;14.58;5.00;;;;;;;13.42;83.43;100227.05;1985158;89;27780;-65
2022/11/05 11:42:39;;;;;;;8.90;3.98;;;;;;;13.42;82.94;100231.93;1952388;90;29075;-65
2022/11/05 11:45:50;;;;;;;7.08;3.65;;;;;;;13.43;82.19;100236.35;1985133;89;31517;-65
2022/11/05 11:48:51;;;;;;;10.65;4.20;;;;;;;13.42;82.39;100235.12;1952200;90;32979;-65
2022/11/05 11:51:56;;;;;;;11.48;4.15;;;;;;;13.43;82.53;100238.20;1983628;89;30546;-65
2022/11/05 11:55:17;;;;;;;9.13;4.67;;;;;;;13.42;81.89;100241.84;1981120;89;27745;-65
2022/11/05 11:58:19;;;;;;;9.70;4.03;;;;;;;13.40;81.95;100242.38;1953820;91;29689;-64
2022/11/05 12:01:55;;;;;;;10.75;5.72;;;;;;;13.34;81.17;100239.60;1953846;90;31452;-64
2022/11/05 12:05:18;;;;;;;9.65;3.90;;;;;;;13.23;81.13;100233.54;1953467;90;33106;-70
2022/11/05 12:08:41;;;;;;;10.10;4.00;;;;;;;13.19;80.72;100254.85;1960693;89;29344;-74
2022/11/05 12:12:00;;;;;;;19.32;3.35;;;;;;;13.14;80.89;100257.83;1975468;88;28202;-66
2022/11/05 12:15:26;;;;;;;10.72;4.85;;;;;;;13.20;80.93;100256.12;1977023;88;29480;-66
2022/11/05 12:18:42;;;;;;;;;;;;;;;13.30;81.12;100253.73;1954471;89;31108;-65
2022/11/05 12:22:01;;;;;;;5.00;3.00;;;;;;;13.41;80.50;100244.15;1973710;89;33067;-66
2022/11/05 12:25:19;;;;;;;9.78;4.28;;;;;;;13.41;80.50;100244.15;1989843;89;29744;-67
2022/11/05 12:28:28;;;;;;;9.48;3.90;;;;;;;13.61;80.55;100265.77;1991456;89;27800;-68
2022/11/05 12:31:47;;;;;;;9.43;3.95;;;;;;;13.63;80.17;100262.04;1949329;90;28132;-66
2022/11/05 12:35:06;;;;;;;12.63;4.80;;;;;;;13.69;79.76;100270.20;1961235;88;33598;-70
2022/11/05 12:38:28;;;;;;;8.65;4.15;;;;;;;13.75;79.74;100272.48;1954300;89;34106;-69
2022/11/05 12:41:52;;;;;;;10.72;3.55;;;;;;;13.76;78.87;100271.52;1922169;90;29756;-64
2022/11/05 12:45:14;;;;;;;10.48;4.75;;;;;;;13.58;78.66;100251.15;1954677;89;27720;-74
2022/11/05 12:48:41;;;;;;;11.48;4.08;;;;;;;13.58;78.66;100251.15;1924361;90;29389;-68
2022/11/05 12:51:56;;;;;;;12.75;3.62;;;;;;;13.63;77.72;100278.66;1955599;89;31630;-71
2022/11/05 12:55:03;;;;;;;12.75;3.60;;;;;;;13.58;78.25;100280.30;1953660;88;34180;-64
2022/11/05 12:58:13;;;;;;;12.60;3.30;;;;;;;13.51;77.75;100273.55;1976756;90;28969;-65
2022/11/05 13:01:29;;;;;;;10.03;3.70;;;;;;;13.36;77.69;100258.72;1988155;89;27738;-67
2022/11/05 13:04:47;;;;;;;15.40;3.83;;;;;;;13.51;77.28;100277.13;1983994;88;29076;-67
2022/11/05 13:08:09;;;;;;;9.98;3.58;;;;;;;13.51;77.28;100277.13;1989998;89;31504;-65
2022/11/05 13:11:24;;;;;;;9.18;2.98;;;;;;;13.54;77.72;100277.41;2008976;88;33363;-67
2022/11/05 13:14:41;;;;;;;;;;;;;;;13.54;76.92;100280.09;2008987;88;30495;-61
2022/11/05 13:17:52;;;;;;;14.78;3.55;;;;;;;13.51;76.80;100277.13;1923326;90;27881;-61
2022/11/05 13:20:56;;;;;;;10.38;3.80;;;;;;;13.48;76.82;100277.31;1922243;90;28868;-66
2022/11/05 13:24:17;;;;;;;8.80;3.72;;;;;;;13.51;76.85;100280.28;1922470;90;31443;-66
2022/11/05 13:27:46;;;;;;;10.38;4.33;;;;;;;13.56;76.73;100276.83;1922214;90;33092;-66
2022/11/05 13:30:55;;;;;;;17.60;7.17;;;;;;;13.56;76.57;100287.59;1930910;90;29523;-64
2022/11/05 13:33:56;;;;;;;18.27;6.10;;;;;;;13.46;76.45;100287.30;1912399;90;27869;-70
2022/11/05 13:40:43;;;;;;;7.03;4.12;;;;;;;13.26;75.69;100314.06;1922743;91;32363;-71
2022/11/05 13:43:56;;;;;;;12.55;3.52;;;;;;;13.26;75.69;100314.06;1954983;89;33530;-67
2022/11/05 13:47:10;;;;;;;12.07;3.77;;;;;;;13.12;75.31;100323.45;1973784;89;29769;-64
2022/11/05 13:50:52;;;;;;;11.88;4.55;;;;;;;13.02;75.43;100328.02;1973091;89;27764;-69
2022/11/05 13:54:43;;;;;;;13.60;3.58;;;;;;;12.95;75.08;100329.81;1977566;88;28440;-65
2022/11/05 13:58:27;;;;;;;11.05;4.55;;;;;;;12.82;75.25;100335.08;1974695;88;31895;-66
2022/11/05 14:01:43;;;;;;;10.68;4.12;;;;;;;12.71;75.11;100337.89;1947979;91;34130;-63
2022/11/05 14:04:59;;;;;;;8.30;3.77;;;;;;;12.58;75.08;100340.91;1991718;88;31518;-67
2022/11/05 14:08:16;;;;;;;16.73;4.28;;;;;;;12.44;75.30;100345.25;1987531;89;27940;-68
2022/11/05 14:11:40;;;;;;;8.35;4.17;;;;;;;12.30;75.14;100351.39;1987734;89;29203;-67
2022/11/05 14:14:48;;;;;;;12.82;5.05;;;;;;;12.14;75.11;100355.89;1985899;88;31092;-65
2022/11/05 14:18:08;;;;;;;18.80;5.20;;;;;;;12.02;75.06;100356.58;1980470;89;33901;-68
2022/11/05 14:21:32;;;;;;;13.50;3.70;;;;;;;11.88;75.14;100361.30;1987279;89;29344;-64
2022/11/05 14:24:41;;;;;;;15.38;6.65;;;;;;;11.73;75.05;100362.53;1985617;88;28318;-67
2022/11/05 14:27:46;;;;;;;33.70;17.48;;;;;;;11.59;74.82;100367.28;1984084;88;28666;-66
2022/11/05 14:30:47;;;;;;;20.15;10.23;;;;;;;11.48;75.13;100375.92;1943020;91;32301;-65
2022/11/05 14:34:14;;;;;;;19.17;9.18;;;;;;;11.39;75.19;100378.61;1934557;92;33041;-67
2022/11/05 14:37:28;;;;;;;24.27;15.03;;;;;;;11.29;75.19;100381.35;1920114;92;30511;-68
2022/11/05 14:40:38;;;;;;;26.12;14.18;;;;;;;11.19;75.39;100388.14;1949922;91;27624;-66
2022/11/05 14:43:48;;;;;;;16.27;6.87;;;;;;;11.08;75.45;100394.93;1919639;91;28705;-65
2022/11/05 14:46:53;;;;;;;21.97;7.65;;;;;;;11.00;75.53;100401.12;1946537;91;31041;-65
2022/11/05 14:50:01;;;;;;;;;;;;;;;10.93;75.60;100405.05;1922693;92;32987;-70
2022/11/05 14:53:27;;;;;;;18.48;7.03;;;;;;;10.85;75.84;100402.75;1949911;91;29368;-65
2022/11/05 14:56:48;;;;;;;18.92;6.67;;;;;;;10.77;75.92;100403.13;1944076;90;27718;-66
2022/11/05 14:59:56;;;;;;;21.90;7.60;;;;;;;10.70;75.99;100414.22;1941428;91;28740;-69
2022/11/05 15:03:26;;;;;;;22.67;7.67;;;;;;;10.61;76.02;100409.72;1953255;89;31116;-70
2022/11/05 15:06:34;;;;;;;18.65;8.03;;;;;;;10.54;76.14;100410.94;1952043;91;32773;-64
2022/11/05 15:09:44;;;;;;;24.80;9.50;;;;;;;10.45;76.30;100413.58;1920267;92;29366;-67
2022/11/05 15:12:54;;;;;;;24.70;13.65;;;;;;;10.37;76.28;100423.77;1949746;91;27742;-68
2022/11/05 15:15:57;;;;;;;23.87;11.57;;;;;;;10.27;76.49;100426.00;1920035;92;29951;-71